Time;durP1;ratioP1;P1;durP2;ratioP2;P2;SDS_P1;SDS_P2;PMS_P1;PMS_P2;Temp;Humidity;BMP_temperature;BMP_pressure;BME280_temperature;BME280_humidity;BME280_pressure;Samples;Min_cycle;Max_cycle;Signal;HPM_P1;HPM_P2
2022/08/29 00:00:14;;;;;;;14.20;9.70;;;;;;;18.60;84.76;99206.17;108515;1283;23061;-57
2022/08/29 00:02:48;;;;;;;15.90;9.10;;;;;;;18.63;84.89;99203.14;108311;1285;138643;-57
2022/08/29 00:05:16;;;;;;;20.10;9.10;;;;;;;18.65;84.98;99202.33;108619;1284;23269;-57
2022/08/29 00:07:43;;;;;;;14.10;9.80;;;;;;;18.68;84.91;99203.58;108613;1283;22474;-57
2022/08/29 00:10:10;;;;;;;18.50;10.90;;;;;;;18.69;84.96;99204.33;108511;1283;140410;-57
2022/08/29 00:12:37;;;;;;;18.10;10.70;;;;;;;18.68;84.94;99202.02;108509;1284;22471;-57
2022/08/29 00:15:05;;;;;;;19.10;10.80;;;;;;;18.69;85.09;99200.02;108476;1284;138749;-57
2022/08/29 00:17:32;;;;;;;15.90;12.10;;;;;;;18.72;85.13;99199.66;108511;1284;22415;-57
2022/08/29 00:19:59;;;;;;;19.30;12.00;;;;;;;18.75;84.98;99199.64;109194;1277;22443;-57
2022/08/29 00:22:25;;;;;;;16.30;11.40;;;;;;;18.73;84.64;99203.27;109070;1277;138891;-57
2022/08/29 00:24:52;;;;;;;19.70;11.70;;;;;;;18.72;84.75;99203.37;109180;1277;22467;-57
2022/08/29 00:27:19;;;;;;;16.10;10.10;;;;;;;18.73;84.58;99205.00;109066;1277;138941;-57
2022/08/29 00:29:46;;;;;;;16.20;10.00;;;;;;;18.73;84.74;99205.48;109177;1277;22488;-57
2022/08/29 00:32:12;;;;;;;20.90;11.10;;;;;;;18.75;84.96;99203.50;109104;1277;139195;-57
2022/08/29 00:34:39;;;;;;;17.10;10.60;;;;;;;18.76;84.96;99201.64;109162;1277;22437;-57
2022/08/29 00:37:06;;;;;;;16.80;11.60;;;;;;;18.77;85.25;99204.60;109082;1277;23361;-58
2022/08/29 00:39:36;;;;;;;15.30;9.60;;;;;;;18.79;85.49;99207.17;108245;1277;139147;-58
2022/08/29 00:42:04;;;;;;;17.90;10.90;;;;;;;18.82;85.37;99204.10;104945;1278;24251;-58
2022/08/29 00:44:31;;;;;;;15.50;11.10;;;;;;;18.84;85.28;99200.25;104780;1277;138502;-58
2022/08/29 00:47:04;;;;;;;17.00;11.10;;;;;;;18.86;85.25;99200.36;104920;1277;22571;-58
2022/08/29 00:49:32;;;;;;;18.50;10.70;;;;;;;18.88;85.31;99195.24;104681;1277;24108;-58
2022/08/29 00:52:04;;;;;;;14.70;10.50;;;;;;;18.88;85.10;99197.61;104617;1277;138852;-58
2022/08/29 00:54:31;;;;;;;16.20;9.90;;;;;;;18.88;85.24;99198.00;109152;1277;23496;-58
2022/08/29 00:56:58;;;;;;;14.00;10.40;;;;;;;18.88;85.35;99198.78;108892;1277;138991;-58
2022/08/29 00:59:30;;;;;;;17.70;9.70;;;;;;;18.87;85.28;99200.11;109175;1277;23469;-58
2022/08/29 01:01:57;;;;;;;16.30;9.20;;;;;;;18.86;85.40;99196.55;109050;1277;22518;-59
2022/08/29 01:04:24;;;;;;;13.60;9.20;;;;;;;18.85;85.50;99194.48;109095;1277;138042;-59
2022/08/29 01:06:52;;;;;;;15.70;8.20;;;;;;;18.86;85.53;99192.92;109212;1277;22416;-59
2022/08/29 01:09:19;;;;;;;14.10;8.40;;;;;;;18.85;85.59;99191.36;109122;1277;138195;-59
2022/08/29 01:14:32;;;;;;;14.50;8.00;;;;;;;18.86;85.40;99191.65;108949;1277;139534;-59
2022/08/29 01:17:04;;;;;;;11.60;7.40;;;;;;;18.86;85.12;99189.55;109169;1277;22465;-59
2022/08/29 01:20:06;;;;;;;9.90;7.30;;;;;;;18.86;84.97;99187.89;109019;1277;22480;-59
2022/08/29 01:22:51;;;;;;;11.60;6.80;;;;;;;18.86;84.59;99186.56;109155;1277;22555;-59
2022/08/29 01:25:21;;;;;;;11.40;6.30;;;;;;;18.85;84.26;99183.49;109095;1277;23886;-59
2022/08/29 01:27:51;;;;;;;12.30;6.50;;;;;;;18.84;83.92;99184.40;109050;1277;138512;-59
2022/08/29 01:30:18;;;;;;;11.90;6.00;;;;;;;18.84;83.86;99185.86;109060;1277;22622;-58
2022/08/29 01:32:45;;;;;;;11.40;6.30;;;;;;;18.83;83.74;99183.84;109092;1277;138991;-59
2022/08/29 01:35:12;;;;;;;13.70;6.40;;;;;;;18.81;83.62;99181.56;109222;1277;22559;-59
2022/08/29 01:37:40;;;;;;;10.60;5.80;;;;;;;18.79;83.51;99182.50;109151;1277;22544;-59
2022/08/29 01:40:07;;;;;;;9.60;5.50;;;;;;;18.77;83.30;99182.06;109056;1277;138941;-59
2022/08/29 01:42:35;;;;;;;12.60;5.40;;;;;;;18.76;83.17;99180.50;109049;1279;22500;-59
2022/08/29 01:45:04;;;;;;;10.70;5.00;;;;;;;18.77;82.90;99178.00;109101;1277;138039;-59
2022/08/29 01:47:36;;;;;;;9.40;5.50;;;;;;;18.77;82.63;99178.16;109152;1277;23273;-59
2022/08/29 01:50:06;;;;;;;11.10;5.20;;;;;;;18.76;82.30;99174.59;108977;1278;138958;-59
2022/08/29 01:52:33;;;;;;;12.00;5.50;;;;;;;18.73;82.12;99177.17;109170;1277;22505;-59
2022/08/29 01:55:00;;;;;;;8.20;5.20;;;;;;;18.71;81.85;99177.00;109040;1277;23219;-58
2022/08/29 01:57:27;;;;;;;8.70;5.60;;;;;;;18.69;81.60;99179.00;108962;1278;139337;-59
2022/08/29 01:59:54;;;;;;;9.40;5.50;;;;;;;18.67;81.54;99181.03;109178;1277;22662;-59
2022/08/29 02:02:24;;;;;;;11.10;5.40;;;;;;;18.65;81.39;99178.39;109112;1277;139016;-59
2022/08/29 02:04:51;;;;;;;10.80;5.20;;;;;;;18.64;80.93;99180.44;109133;1277;22449;-59
2022/08/29 02:07:19;;;;;;;11.30;5.90;;;;;;;18.65;80.67;99180.86;109227;1277;22535;-59
2022/08/29 02:09:46;;;;;;;10.90;5.00;;;;;;;18.65;80.37;99177.77;109087;1277;138462;-59
2022/08/29 02:12:14;;;;;;;8.40;5.60;;;;;;;18.65;80.08;99176.28;109200;1277;22423;-59
2022/08/29 02:14:41;;;;;;;9.30;5.10;;;;;;;18.63;79.89;99174.08;108941;1277;138485;-59
2022/08/29 02:17:08;;;;;;;11.50;5.00;;;;;;;18.61;79.67;99177.52;109151;1276;22564;-59
2022/08/29 02:19:35;;;;;;;9.20;5.30;;;;;;;18.58;79.42;99176.27;109151;1277;22479;-58
2022/08/29 02:22:02;;;;;;;9.80;6.40;;;;;;;18.56;79.07;99176.42;109015;1277;138181;-58
2022/08/29 02:24:29;;;;;;;13.30;6.00;;;;;;;18.52;78.71;99179.94;109069;1278;22493;-58
2022/08/29 02:26:56;;;;;;;9.90;5.50;;;;;;;18.48;78.43;99179.23;109043;1277;138802;-58
2022/08/29 02:29:23;;;;;;;15.30;5.50;;;;;;;18.44;78.26;99178.20;109216;1277;22478;-58
2022/08/29 02:31:50;;;;;;;11.20;6.40;;;;;;;18.38;78.04;99180.66;109195;1277;22417;-58
2022/08/29 02:34:17;;;;;;;12.60;5.80;;;;;;;18.31;78.10;99179.54;109062;1276;138197;-59
2022/08/29 02:36:44;;;;;;;9.40;5.80;;;;;;;18.23;78.01;99179.52;109179;1277;22460;-59
2022/08/29 02:39:14;;;;;;;7.90;5.40;;;;;;;18.14;77.98;99181.20;109156;1277;137732;-59
2022/08/29 02:41:41;;;;;;;14.60;7.10;;;;;;;18.03;78.10;99182.90;109110;1277;22561;-58
2022/08/29 02:44:10;;;;;;;16.80;6.30;;;;;;;17.94;78.28;99183.70;108894;1279;140017;-59
2022/08/29 02:46:37;;;;;;;11.40;6.40;;;;;;;17.88;78.42;99180.71;109186;1277;22474;-59
2022/08/29 02:49:03;;;;;;;9.90;5.40;;;;;;;17.81;78.54;99183.41;109197;1277;22534;-59
2022/08/29 02:51:31;;;;;;;8.50;5.90;;;;;;;17.73;78.68;99185.43;109097;1277;138908;-57
2022/08/29 02:53:58;;;;;;;10.40;6.30;;;;;;;17.66;78.72;99187.59;109212;1277;22916;-58
2022/08/29 02:56:25;;;;;;;12.00;6.60;;;;;;;17.58;78.77;99187.54;109053;1277;139344;-59
2022/08/29 02:58:51;;;;;;;10.30;6.00;;;;;;;17.53;78.86;99186.84;109186;1277;22557;-58
2022/08/29 03:01:19;;;;;;;13.20;6.50;;;;;;;17.49;78.91;99188.42;109157;1277;23257;-59
2022/08/29 03:03:46;;;;;;;10.70;7.40;;;;;;;17.45;78.99;99191.93;109100;1277;140281;-59
2022/08/29 03:06:13;;;;;;;14.80;7.00;;;;;;;17.41;79.02;99187.02;109056;1278;22457;-59
2022/08/29 03:08:39;;;;;;;11.40;6.80;;;;;;;17.36;79.06;99191.68;109060;1277;138187;-58
2022/08/29 03:11:06;;;;;;;15.50;7.00;;;;;;;17.30;79.28;99196.89;109193;1277;23710;-59
2022/08/29 03:13:33;;;;;;;13.50;7.50;;;;;;;17.26;79.23;99200.12;109256;1277;22625;-59
2022/08/29 03:16:03;;;;;;;14.10;7.40;;;;;;;17.24;79.47;99199.29;109042;1277;138732;-59
2022/08/29 03:18:30;;;;;;;15.90;7.60;;;;;;;17.24;79.30;99201.05;109225;1277;22254;-59
2022/08/29 03:20:57;;;;;;;19.80;7.80;;;;;;;17.25;79.12;99204.12;109097;1277;138472;-59
2022/08/29 03:23:24;;;;;;;11.50;7.00;;;;;;;17.25;79.04;99202.57;109085;1277;22431;-58
2022/08/29 03:25:51;;;;;;;10.50;6.80;;;;;;;17.26;78.84;99203.77;109054;1277;22523;-59
2022/08/29 03:28:18;;;;;;;13.00;6.60;;;;;;;17.28;78.61;99204.45;109086;1277;138806;-58
2022/08/29 03:30:46;;;;;;;14.20;6.80;;;;;;;17.29;78.39;99205.70;109177;1277;22573;-59
2022/08/29 03:33:12;;;;;;;16.70;6.80;;;;;;;17.31;78.21;99207.45;108919;1277;138417;-59
2022/08/29 03:35:39;;;;;;;13.60;6.40;;;;;;;17.33;78.04;99209.60;109177;1277;22509;-59
2022/08/29 03:38:06;;;;;;;12.10;6.40;;;;;;;17.35;77.97;99209.23;109065;1277;138431;-59
2022/08/29 03:40:33;;;;;;;12.60;5.90;;;;;;;17.38;77.85;99208.67;106683;1277;25445;-58
2022/08/29 03:43:02;;;;;;;14.50;6.20;;;;;;;17.40;77.76;99206.05;104733;1278;24903;-58
2022/08/29 03:45:29;;;;;;;11.70;5.90;;;;;;;17.42;77.58;99209.08;104611;1277;138034;-59
2022/08/29 03:47:56;;;;;;;10.10;6.00;;;;;;;17.44;77.42;99209.04;104863;1278;23131;-59
2022/08/29 03:50:23;;;;;;;12.80;6.10;;;;;;;17.46;77.65;99206.29;104711;1277;138764;-58
2022/08/29 03:52:50;;;;;;;13.50;6.20;;;;;;;17.48;77.56;99209.77;109063;1277;23271;-59
2022/08/29 03:55:18;;;;;;;11.60;6.40;;;;;;;17.49;77.40;99206.38;109193;1277;22476;-58
2022/08/29 03:57:45;;;;;;;13.70;6.90;;;;;;;17.51;77.47;99208.98;109059;1277;141130;-59
2022/08/29 04:00:15;;;;;;;12.20;6.30;;;;;;;17.53;77.19;99213.52;109176;1277;22444;-58
2022/08/29 04:02:45;;;;;;;14.10;6.70;;;;;;;17.55;77.00;99219.02;109091;1277;139661;-58
2022/08/29 04:05:13;;;;;;;11.10;5.20;;;;;;;17.59;76.80;99218.98;109090;1279;22539;-59
2022/08/29 04:07:48;;;;;;;14.70;6.00;;;;;;;17.63;76.66;99218.61;109114;1277;23337;-58
2022/08/29 04:10:24;;;;;;;10.30;5.50;;;;;;;17.69;76.45;99219.55;109125;1277;139906;-58
2022/08/29 04:12:50;;;;;;;12.50;6.00;;;;;;;17.75;76.36;99219.55;109245;1277;22400;-58
2022/08/29 04:15:25;;;;;;;12.10;5.70;;;;;;;17.82;76.10;99218.41;109072;1277;139879;-59
2022/08/29 04:17:56;;;;;;;11.30;6.00;;;;;;;17.88;75.87;99217.80;109239;1277;22453;-59
2022/08/29 04:20:25;;;;;;;12.30;5.70;;;;;;;17.95;75.78;99221.59;109044;1278;139000;-59
2022/08/29 04:22:53;;;;;;;10.90;5.50;;;;;;;18.04;75.52;99220.67;109168;1277;22553;-59
2022/08/29 04:25:20;;;;;;;12.40;5.20;;;;;;;18.13;75.26;99220.05;109022;1278;22626;-58
2022/08/29 04:27:48;;;;;;;11.60;5.90;;;;;;;18.23;75.04;99220.27;109049;1277;138116;-59
2022/08/29 04:30:17;;;;;;;13.20;5.60;;;;;;;18.37;74.78;99224.05;109046;1277;22455;-59
2022/08/29 04:32:44;;;;;;;16.40;6.50;;;;;;;18.56;74.40;99218.41;109111;1277;139014;-59
2022/08/29 04:35:11;;;;;;;11.90;5.80;;;;;;;18.80;73.93;99221.57;109172;1277;22449;-59
2022/08/29 04:37:39;;;;;;;15.30;5.90;;;;;;;19.06;73.04;99223.85;109206;1277;22547;-59
2022/08/29 04:40:07;;;;;;;14.00;5.60;;;;;;;19.31;71.99;99216.46;107293;1277;139487;-59
2022/08/29 04:42:38;;;;;;;10.80;5.50;;;;;;;19.59;71.02;99217.83;104908;1278;22588;-58
2022/08/29 04:45:05;;;;;;;16.40;5.80;;;;;;;19.86;70.04;99214.20;104871;1277;139551;-58
2022/08/29 04:47:35;;;;;;;13.10;5.40;;;;;;;20.12;69.12;99216.14;104808;1277;24122;-58
2022/08/29 04:50:04;;;;;;;15.70;6.00;;;;;;;20.37;68.30;99215.74;104649;1277;138117;-59
2022/08/29 04:52:30;;;;;;;15.00;5.50;;;;;;;20.61;67.62;99214.34;109208;1277;23246;-58
2022/08/29 04:54:58;;;;;;;13.50;6.10;;;;;;;20.85;66.97;99213.52;109027;1278;22666;-58
2022/08/29 04:57:25;;;;;;;15.10;6.70;;;;;;;21.10;66.58;99216.74;109118;1277;137666;-59
2022/08/29 04:59:54;;;;;;;11.90;6.40;;;;;;;21.33;65.96;99218.38;109251;1277;23267;-59
2022/08/29 05:02:21;;;;;;;14.30;6.30;;;;;;;21.54;65.14;99211.77;109138;1276;137647;-58
2022/08/29 05:04:51;;;;;;;16.00;7.20;;;;;;;21.75;64.44;99215.06;109212;1277;22240;-58
2022/08/29 05:07:19;;;;;;;17.70;6.70;;;;;;;21.94;63.68;99214.43;109118;1277;22372;-58
2022/08/29 05:09:48;;;;;;;14.90;5.90;;;;;;;22.14;62.99;99214.46;109120;1277;137621;-58
2022/08/29 05:12:15;;;;;;;10.70;6.40;;;;;;;22.31;62.13;99212.30;109246;1277;23448;-58
2022/08/29 05:14:42;;;;;;;13.20;6.50;;;;;;;22.47;61.69;99216.75;109130;1277;139089;-58
2022/08/29 05:17:08;;;;;;;16.40;7.80;;;;;;;22.64;61.10;99218.44;109168;1277;23247;-58
2022/08/29 05:19:36;;;;;;;23.70;7.20;;;;;;;22.78;60.80;99215.59;109236;1277;22445;-58
2022/08/29 05:22:14;;;;;;;14.50;7.70;;;;;;;22.95;60.15;99214.08;109167;1277;138181;-58
2022/08/29 05:24:41;;;;;;;16.40;7.60;;;;;;;23.09;60.00;99212.97;109094;1277;23220;-58
2022/08/29 05:27:13;;;;;;;14.00;8.10;;;;;;;23.23;59.33;99208.95;109087;1277;138187;-58
2022/08/29 05:29:40;;;;;;;16.90;10.10;;;;;;;23.35;58.90;99210.75;109255;1277;22458;-58
2022/08/29 05:32:09;;;;;;;16.20;10.50;;;;;;;23.47;58.57;99211.84;109087;1277;143681;-59
2022/08/29 05:34:36;;;;;;;17.70;10.70;;;;;;;23.57;57.89;99208.91;109159;1277;22519;-58
2022/08/29 05:37:04;;;;;;;17.60;11.10;;;;;;;23.67;57.66;99210.62;109200;1277;22519;-58
2022/08/29 05:39:31;;;;;;;25.50;17.50;;;;;;;23.76;57.51;99212.80;109083;1277;138904;-58
2022/08/29 05:41:58;;;;;;;23.30;16.40;;;;;;;23.84;57.16;99210.16;108992;1277;22489;-58
2022/08/29 05:44:26;;;;;;;18.40;12.90;;;;;;;23.93;56.89;99209.48;109014;1277;138412;-58
2022/08/29 05:46:59;;;;;;;20.90;12.70;;;;;;;24.03;56.62;99212.84;109160;1277;23542;-58
2022/08/29 05:49:26;;;;;;;23.60;12.00;;;;;;;24.09;56.48;99216.21;109183;1277;23782;-58
2022/08/29 05:51:54;;;;;;;15.90;10.80;;;;;;;24.11;56.12;99211.27;108868;1277;139097;-58
2022/08/29 05:54:21;;;;;;;17.40;11.00;;;;;;;24.12;55.62;99216.14;109267;1277;22981;-58
2022/08/29 05:57:04;;;;;;;18.00;10.40;;;;;;;24.08;54.82;99214.05;107216;1278;22596;-57
2022/08/29 05:59:53;;;;;;;22.10;10.90;;;;;;;23.99;54.69;99219.91;105698;1270;22464;-54
2022/08/29 06:02:20;;;;;;;22.40;13.00;;;;;;;23.88;54.79;99214.67;103992;1283;138351;-58
2022/08/29 06:04:48;;;;;;;21.30;11.20;;;;;;;23.80;55.05;99215.08;104114;1284;22583;-58
2022/08/29 06:07:14;;;;;;;19.60;12.00;;;;;;;23.75;55.17;99217.30;104161;1283;27371;-57
2022/08/29 06:09:41;;;;;;;17.30;11.90;;;;;;;23.70;55.30;99217.92;104029;1283;138415;-58
2022/08/29 06:12:09;;;;;;;20.30;12.50;;;;;;;23.66;55.54;99215.38;104232;1283;25446;-58
2022/08/29 06:14:35;;;;;;;19.50;12.10;;;;;;;23.61;55.42;99216.73;108218;1285;137959;-59
2022/08/29 06:17:03;;;;;;;22.30;12.90;;;;;;;23.56;55.65;99222.89;108322;1283;22553;-58
2022/08/29 06:19:33;;;;;;;23.10;12.50;;;;;;;23.53;55.48;99222.70;108333;1283;22539;-58
2022/08/29 06:22:02;;;;;;;19.30;12.00;;;;;;;23.51;55.60;99223.43;108283;1283;138105;-59
2022/08/29 06:24:35;;;;;;;27.50;12.20;;;;;;;23.49;55.86;99225.27;108379;1285;23144;-58
2022/08/29 06:27:02;;;;;;;20.40;10.80;;;;;;;23.48;55.93;99228.09;108262;1284;137909;-58
2022/08/29 06:29:29;;;;;;;25.80;13.10;;;;;;;23.48;55.51;99228.10;108345;1284;23254;-58
2022/08/29 06:31:56;;;;;;;17.80;12.20;;;;;;;23.49;55.71;99227.89;108420;1283;22779;-59
2022/08/29 06:34:23;;;;;;;19.90;13.20;;;;;;;23.51;55.98;99227.58;108285;1284;139032;-59
2022/08/29 06:36:50;;;;;;;18.50;12.10;;;;;;;23.54;55.86;99234.08;108365;1283;22585;-59
2022/08/29 06:39:17;;;;;;;15.80;11.60;;;;;;;23.56;55.70;99230.25;108258;1284;138816;-59
2022/08/29 06:41:44;;;;;;;33.40;12.50;;;;;;;23.59;55.44;99233.77;108303;1284;22545;-59
2022/08/29 06:44:12;;;;;;;18.00;11.10;;;;;;;23.63;55.50;99236.20;108125;1284;139178;-59
2022/08/29 06:46:40;;;;;;;18.40;11.90;;;;;;;23.69;55.33;99241.10;108305;1283;22753;-59
2022/08/29 06:49:09;;;;;;;21.10;12.30;;;;;;;23.73;54.73;99243.02;108401;1285;22605;-59
2022/08/29 06:51:38;;;;;;;17.10;12.20;;;;;;;23.77;55.07;99251.73;108239;1284;139531;-59
2022/08/29 06:54:05;;;;;;;16.50;11.10;;;;;;;23.83;55.23;99251.55;108435;1283;22527;-59
2022/08/29 06:56:33;;;;;;;22.10;12.20;;;;;;;23.87;54.73;99251.39;108345;1283;140091;-59
2022/08/29 06:59:03;;;;;;;17.50;12.10;;;;;;;23.92;54.73;99251.14;108458;1283;22450;-58
2022/08/29 07:01:30;;;;;;;18.60;11.60;;;;;;;23.98;54.51;99251.84;108427;1283;23260;-59
2022/08/29 07:03:59;;;;;;;20.30;11.60;;;;;;;24.05;54.65;99255.05;108302;1283;138887;-59
2022/08/29 07:06:26;;;;;;;18.40;12.50;;;;;;;24.10;54.82;99251.79;108409;1285;22484;-59
2022/08/29 07:08:53;;;;;;;25.60;12.40;;;;;;;24.15;54.47;99246.93;108421;1284;138405;-59
2022/08/29 07:11:22;;;;;;;20.50;11.30;;;;;;;24.22;53.80;99250.95;108529;1283;22459;-59
2022/08/29 07:13:49;;;;;;;27.30;11.90;;;;;;;24.28;53.44;99246.92;108421;1283;22543;-59
2022/08/29 07:16:17;;;;;;;20.00;12.00;;;;;;;24.34;53.54;99252.25;108369;1283;137955;-59
2022/08/29 07:18:45;;;;;;;19.60;11.60;;;;;;;24.38;53.12;99253.57;108447;1283;23723;-59
2022/08/29 07:21:13;;;;;;;19.40;12.30;;;;;;;24.42;53.73;99249.45;108298;1284;138617;-59
2022/08/29 07:23:46;;;;;;;19.30;12.50;;;;;;;24.46;53.04;99249.16;108375;1284;23308;-59
2022/08/29 07:26:16;;;;;;;19.90;13.10;;;;;;;24.48;53.10;99256.40;108269;1284;139608;-59
2022/08/29 07:28:48;;;;;;;16.40;12.20;;;;;;;24.51;53.22;99252.33;108427;1284;22571;-58
2022/08/29 07:31:15;;;;;;;19.50;11.40;;;;;;;24.55;52.72;99246.28;108384;1284;23304;-59
2022/08/29 07:33:42;;;;;;;19.90;12.60;;;;;;;24.58;51.99;99243.52;108423;1283;137927;-59
2022/08/29 07:36:09;;;;;;;19.20;12.30;;;;;;;24.62;52.63;99243.08;108476;1283;22535;-59
2022/08/29 07:38:36;;;;;;;19.90;12.50;;;;;;;24.68;53.02;99237.64;108192;1284;137932;-59
2022/08/29 07:41:05;;;;;;;18.90;11.70;;;;;;;24.73;53.02;99243.34;108434;1283;22570;-59
2022/08/29 07:43:31;;;;;;;16.80;12.10;;;;;;;24.78;53.15;99244.69;108487;1283;22475;-59
2022/08/29 07:45:58;;;;;;;18.40;11.50;;;;;;;24.85;52.78;99247.23;108326;1283;139830;-59
2022/08/29 07:48:25;;;;;;;18.50;12.10;;;;;;;24.91;52.77;99246.45;108463;1283;22268;-59
2022/08/29 07:50:52;;;;;;;21.30;12.40;;;;;;;24.97;52.54;99249.87;108320;1283;138430;-59
2022/08/29 07:53:19;;;;;;;17.60;11.60;;;;;;;25.02;52.25;99248.89;108462;1282;22452;-59
2022/08/29 07:55:45;;;;;;;24.30;11.90;;;;;;;25.08;51.98;99247.77;108419;1283;22429;-59
2022/08/29 07:58:12;;;;;;;19.30;12.30;;;;;;;25.14;52.11;99250.84;108255;1284;139018;-59
2022/08/29 08:00:39;;;;;;;22.50;13.00;;;;;;;25.18;52.89;99250.31;108438;1284;22428;-60
2022/08/29 08:03:07;;;;;;;19.60;13.00;;;;;;;25.24;52.77;99250.06;108282;1284;139108;-59
2022/08/29 08:05:34;;;;;;;15.10;11.90;;;;;;;25.29;52.43;99246.11;108359;1284;22460;-59
2022/08/29 08:08:01;;;;;;;19.20;12.60;;;;;;;25.35;52.30;99249.13;108371;1284;22553;-59
2022/08/29 08:10:41;;;;;;;17.30;12.20;;;;;;;25.43;52.38;99251.44;108451;1283;22322;-59
2022/08/29 08:13:08;;;;;;;20.20;12.30;;;;;;;25.48;52.13;99244.73;108512;1283;22464;-58
2022/08/29 08:15:36;;;;;;;17.00;12.40;;;;;;;25.55;51.55;99247.09;108303;1284;137769;-58
2022/08/29 08:18:04;;;;;;;18.90;11.80;;;;;;;25.62;50.97;99251.59;108428;1283;22534;-58
2022/08/29 08:20:31;;;;;;;13.20;11.10;;;;;;;25.69;50.41;99252.71;108394;1283;138454;-58
2022/08/29 08:22:58;;;;;;;20.70;11.20;;;;;;;25.77;50.26;99253.68;108409;1284;23302;-58
2022/08/29 08:25:25;;;;;;;17.10;12.50;;;;;;;25.82;49.98;99249.24;108398;1284;23131;-59
2022/08/29 08:27:52;;;;;;;13.90;11.80;;;;;;;25.88;49.89;99253.61;108329;1284;138224;-58
2022/08/29 08:30:19;;;;;;;19.50;12.30;;;;;;;25.93;49.75;99258.20;108486;1283;22522;-58
2022/08/29 08:32:47;;;;;;;16.90;12.20;;;;;;;25.99;50.15;99259.10;108288;1283;138147;-58
2022/08/29 08:35:20;;;;;;;15.70;11.90;;;;;;;26.04;49.37;99260.10;108264;1284;22494;-58
2022/08/29 08:37:48;;;;;;;18.90;11.30;;;;;;;26.09;49.58;99255.56;108463;1283;23328;-58
2022/08/29 08:40:19;;;;;;;14.80;11.10;;;;;;;26.13;49.50;99253.73;108406;1283;138640;-58
2022/08/29 08:42:49;;;;;;;17.20;10.20;;;;;;;26.19;48.85;99252.96;108278;1283;22464;-58
2022/08/29 08:45:18;;;;;;;17.30;10.70;;;;;;;26.25;48.48;99253.17;108381;1284;137776;-60
2022/08/29 08:47:50;;;;;;;13.00;10.30;;;;;;;26.32;48.44;99253.10;108364;1284;23103;-57
2022/08/29 08:50:29;;;;;;;14.80;11.00;;;;;;;26.38;48.62;99252.67;108329;1283;138958;-58
2022/08/29 08:52:58;;;;;;;14.50;11.20;;;;;;;26.44;47.99;99252.04;108308;1285;22594;-58
2022/08/29 08:55:45;;;;;;;16.10;10.90;;;;;;;26.49;47.17;99252.63;108635;1281;22657;-58
2022/08/29 08:58:12;;;;;;;;;;;;;;;26.57;47.20;99252.69;108826;1280;137909;-58
2022/08/29 09:00:44;;;;;;;16.30;10.60;;;;;;;26.63;46.41;99252.88;108965;1280;23179;-58
2022/08/29 09:03:24;;;;;;;15.20;9.20;;;;;;;26.68;46.15;99255.29;108889;1278;139598;-59
2022/08/29 09:06:06;;;;;;;18.40;8.80;;;;;;;26.74;42.78;99254.12;108967;1279;22417;-59
2022/08/29 09:09:07;;;;;;;19.50;8.80;;;;;;;26.87;41.95;99254.19;108786;1280;139326;-59
2022/08/29 09:12:05;;;;;;;13.10;8.10;;;;;;;27.03;42.03;99254.33;108885;1278;22550;-59
2022/08/29 09:14:47;;;;;;;15.50;8.90;;;;;;;27.13;42.48;99256.73;108707;1279;138181;-58
2022/08/29 09:17:23;;;;;;;9.70;7.40;;;;;;;27.20;41.36;99257.87;108715;1279;22539;-59
2022/08/29 09:19:50;;;;;;;10.80;7.40;;;;;;;27.25;41.34;99260.53;108640;1279;22503;-58
2022/08/29 09:22:25;;;;;;;16.50;8.40;;;;;;;27.30;40.21;99262.03;108671;1278;138346;-58
2022/08/29 09:25:03;;;;;;;13.30;7.30;;;;;;;27.38;38.88;99264.08;109037;1278;22505;-59
2022/08/29 09:27:31;;;;;;;10.60;8.50;;;;;;;27.45;39.59;99260.59;108735;1281;138103;-60
2022/08/29 09:30:11;;;;;;;13.80;7.90;;;;;;;27.51;39.92;99259.00;108943;1277;22628;-58
2022/08/29 09:33:03;;;;;;;19.50;8.70;;;;;;;27.58;39.67;99260.47;108790;1278;138209;-58
2022/08/29 09:35:40;;;;;;;16.00;8.30;;;;;;;27.63;39.07;99253.69;108944;1278;23332;-58
2022/08/29 09:38:15;;;;;;;18.20;7.60;;;;;;;27.67;39.01;99255.11;108972;1277;23357;-58
2022/08/29 09:40:58;;;;;;;12.40;7.90;;;;;;;27.71;37.79;99257.70;108895;1280;22361;-59
2022/08/29 09:43:37;;;;;;;19.20;8.00;;;;;;;27.76;38.84;99253.54;108918;1277;22443;-59
2022/08/29 09:46:07;;;;;;;15.00;7.90;;;;;;;27.79;38.84;99252.31;108660;1279;137558;-59
2022/08/29 09:48:35;;;;;;;11.90;7.90;;;;;;;27.82;39.00;99253.47;108984;1277;24292;-59
2022/08/29 09:51:11;;;;;;;16.00;8.20;;;;;;;27.84;38.93;99252.53;108826;1278;138123;-59
2022/08/29 09:53:38;;;;;;;23.20;8.80;;;;;;;27.86;39.25;99252.63;108940;1279;22573;-57
2022/08/29 09:56:06;;;;;;;13.10;8.00;;;;;;;27.89;39.26;99251.14;108954;1277;22458;-58
2022/08/29 09:58:38;;;;;;;13.30;8.10;;;;;;;27.91;39.57;99254.38;108938;1277;22536;-58
2022/08/29 10:01:15;;;;;;;11.50;8.20;;;;;;;27.93;39.60;99250.73;108830;1280;22463;-58
2022/08/29 10:03:57;;;;;;;14.70;8.50;;;;;;;27.96;39.70;99245.65;108700;1280;137799;-58
2022/08/29 10:06:31;;;;;;;15.80;8.90;;;;;;;27.99;38.99;99248.89;108795;1280;23737;-58
2022/08/29 10:09:08;;;;;;;14.80;8.40;;;;;;;28.02;38.39;99246.43;108809;1278;139639;-58
2022/08/29 10:11:46;;;;;;;9.40;8.10;;;;;;;28.07;38.60;99246.10;108919;1280;23266;-58
2022/08/29 10:14:16;;;;;;;17.00;8.80;;;;;;;28.11;38.84;99244.32;108565;1280;138554;-57
2022/08/29 10:16:46;;;;;;;14.30;8.50;;;;;;;28.16;38.71;99245.95;108863;1279;22656;-57
2022/08/29 10:19:25;;;;;;;13.70;8.00;;;;;;;28.19;38.82;99245.86;108938;1279;22582;-58
2022/08/29 10:22:04;;;;;;;10.90;8.20;;;;;;;28.20;39.32;99241.88;108833;1279;139402;-58
2022/08/29 10:24:30;;;;;;;13.00;8.50;;;;;;;28.22;39.01;99240.54;108831;1277;23276;-57
2022/08/29 10:27:22;;;;;;;12.70;8.10;;;;;;;28.24;39.16;99235.29;108882;1277;138085;-57
2022/08/29 10:29:58;;;;;;;12.70;7.60;;;;;;;28.28;39.09;99233.48;108869;1279;23248;-58
2022/08/29 10:32:35;;;;;;;12.40;8.20;;;;;;;28.32;38.66;99234.56;108898;1277;140073;-58
2022/08/29 10:35:18;;;;;;;14.90;8.30;;;;;;;28.36;38.81;99238.30;108773;1279;22490;-57
2022/08/29 10:37:56;;;;;;;22.30;8.40;;;;;;;28.38;38.46;99236.27;108936;1277;22410;-58
2022/08/29 10:40:44;;;;;;;10.90;7.90;;;;;;;28.41;37.88;99234.52;108710;1279;138097;-58
2022/08/29 10:43:26;;;;;;;12.50;8.10;;;;;;;28.45;38.10;99233.35;108940;1277;22465;-58
2022/08/29 10:45:56;;;;;;;10.30;7.60;;;;;;;28.49;37.32;99233.16;108715;1279;139168;-59
2022/08/29 10:48:29;;;;;;;10.10;7.40;;;;;;;28.52;37.39;99228.14;108977;1279;22476;-59
2022/08/29 10:51:31;;;;;;;16.60;7.20;;;;;;;28.55;37.56;99229.61;108864;1277;137998;-58
2022/08/29 10:54:04;;;;;;;13.30;7.10;;;;;;;28.58;37.43;99228.27;107876;1286;22454;-58
2022/08/29 10:56:38;;;;;;;11.00;7.20;;;;;;;28.60;37.18;99224.69;107876;1285;138065;-58
2022/08/29 10:59:27;;;;;;;11.40;7.40;;;;;;;28.61;37.32;99224.92;108087;1285;22660;-58
2022/08/29 11:02:07;;;;;;;13.00;6.70;;;;;;;28.58;37.10;99229.63;108051;1287;22494;-57
2022/08/29 11:04:37;;;;;;;10.70;6.60;;;;;;;28.58;37.13;99228.10;108013;1285;22474;-57
2022/08/29 11:07:17;;;;;;;11.70;7.20;;;;;;;28.60;37.44;99231.58;107952;1287;22303;-58
2022/08/29 11:09:53;;;;;;;19.50;7.70;;;;;;;28.62;37.67;99229.98;107916;1285;138253;-58
2022/08/29 11:12:45;;;;;;;20.80;7.40;;;;;;;28.65;37.70;99228.73;108066;1285;23624;-58
2022/08/29 11:15:27;;;;;;;15.30;7.80;;;;;;;28.67;37.55;99233.17;108089;1285;138447;-58
2022/08/29 11:18:27;;;;;;;13.90;7.20;;;;;;;28.70;37.24;99231.05;108071;1286;23170;-57
2022/08/29 11:21:01;;;;;;;13.10;7.30;;;;;;;28.74;36.98;99230.98;107074;1293;137758;-58
2022/08/29 11:23:36;;;;;;;18.90;7.70;;;;;;;28.78;36.68;99227.76;107216;1294;22441;-58
2022/08/29 11:26:12;;;;;;;18.40;6.90;;;;;;;28.81;36.93;99228.05;107261;1293;22686;-58
2022/08/29 11:28:49;;;;;;;18.20;7.20;;;;;;;28.85;37.03;99231.04;107354;1292;22485;-58